createdAt,value
2023-01-27T00:00:20.475Z,15.00
2023-01-27T00:03:10.440Z,10.90
2023-01-27T00:06:01.210Z,11.50
2023-01-27T00:08:48.092Z,9.48
2023-01-27T00:11:53.798Z,12.33
2023-01-27T00:14:40.635Z,10.70
2023-01-27T00:17:27.448Z,8.23
2023-01-27T00:20:34.353Z,12.00
2023-01-27T00:23:42.372Z,11.65
2023-01-27T00:26:29.287Z,11.93
2023-01-27T00:29:16.106Z,11.30
2023-01-27T00:32:23.033Z,12.00
2023-01-27T00:35:09.896Z,11.30
2023-01-27T00:37:56.970Z,8.18
2023-01-27T00:41:03.869Z,14.32
2023-01-27T00:43:55.221Z,10.75
2023-01-27T00:46:42.825Z,12.05
2023-01-27T00:52:16.506Z,12.65
2023-01-27T00:55:03.414Z,11.27
2023-01-27T00:57:50.188Z,13.15
2023-01-27T01:00:36.997Z,14.50
2023-01-27T01:03:23.808Z,14.00
2023-01-27T01:06:12.722Z,13.50
2023-01-27T01:08:59.580Z,13.93
2023-01-27T01:11:46.425Z,12.10
2023-01-27T01:14:33.446Z,13.40
2023-01-27T01:17:20.380Z,12.80
2023-01-27T01:20:07.883Z,11.33
2023-01-27T01:22:54.731Z,12.73
2023-01-27T01:25:42.468Z,13.07
2023-01-27T01:31:18.803Z,11.65
2023-01-27T01:34:05.819Z,14.40
2023-01-27T01:36:52.605Z,13.73
2023-01-27T01:39:39.502Z,13.63
2023-01-27T01:42:26.284Z,14.38
2023-01-27T01:45:31.680Z,12.17
2023-01-27T01:48:34.044Z,13.57
2023-01-27T01:51:32.126Z,13.45
2023-01-27T01:54:24.900Z,13.20
2023-01-27T01:57:18.435Z,13.35
2023-01-27T02:00:07.934Z,13.68
2023-01-27T02:02:54.991Z,13.00
2023-01-27T02:05:44.976Z,13.32
2023-01-27T02:08:40.156Z,13.90
2023-01-27T02:11:28.697Z,13.63
2023-01-27T02:14:17.087Z,12.70
2023-01-27T02:17:05.365Z,14.38
2023-01-27T02:19:55.257Z,14.90
2023-01-27T02:23:17.673Z,12.43
2023-01-27T02:26:10.653Z,12.02
2023-01-27T02:29:05.690Z,13.48
2023-01-27T02:31:52.637Z,14.10
2023-01-27T02:34:39.884Z,11.07
2023-01-27T02:37:27.667Z,15.85
2023-01-27T02:40:15.215Z,15.45
2023-01-27T02:43:04.971Z,13.20
2023-01-27T02:45:51.783Z,15.32
2023-01-27T02:48:38.624Z,15.43
2023-01-27T02:51:25.580Z,15.40
2023-01-27T02:54:12.520Z,16.05
2023-01-27T02:56:59.839Z,13.13
2023-01-27T02:59:46.699Z,14.38
2023-01-27T03:02:33.602Z,16.07
2023-01-27T03:05:20.436Z,16.00
2023-01-27T03:08:07.413Z,15.93
2023-01-27T03:10:55.913Z,14.45
2023-01-27T03:13:42.802Z,14.43
2023-01-27T03:16:48.235Z,15.48
2023-01-27T03:19:35.029Z,15.57
2023-01-27T03:22:21.951Z,14.57
2023-01-27T03:25:09.309Z,15.50
2023-01-27T03:27:57.100Z,14.70
2023-01-27T03:33:30.835Z,12.48
2023-01-27T03:36:35.981Z,14.82
2023-01-27T03:39:41.543Z,15.45
2023-01-27T03:42:46.792Z,15.07
2023-01-27T03:45:52.333Z,15.32
2023-01-27T03:48:39.175Z,12.80
2023-01-27T03:51:27.335Z,13.73
2023-01-27T03:54:14.262Z,14.05
2023-01-27T03:57:06.615Z,13.80
2023-01-27T03:59:53.486Z,15.13
2023-01-27T04:02:59.171Z,14.57
2023-01-27T04:06:04.494Z,13.20
2023-01-27T04:08:51.448Z,14.02
2023-01-27T04:11:56.510Z,14.32
2023-01-27T04:14:43.485Z,15.82
2023-01-27T04:17:38.166Z,14.40
2023-01-27T04:20:25.009Z,15.30
2023-01-27T04:23:11.786Z,17.60
2023-01-27T04:26:00.407Z,16.80
2023-01-27T04:28:48.002Z,17.00
2023-01-27T04:31:35.408Z,15.73
2023-01-27T04:34:22.374Z,16.98
2023-01-27T04:37:10.089Z,15.77
2023-01-27T04:42:43.868Z,16.50
2023-01-27T04:45:30.933Z,19.55
2023-01-27T04:48:17.896Z,16.52
2023-01-27T04:51:04.853Z,16.70
2023-01-27T04:53:51.730Z,17.60
2023-01-27T04:56:42.558Z,15.70
2023-01-27T04:59:29.439Z,15.98
2023-01-27T05:02:16.366Z,12.65
2023-01-27T05:05:05.966Z,16.98
2023-01-27T05:07:52.764Z,16.65
2023-01-27T05:10:39.615Z,15.37
2023-01-27T05:13:26.457Z,16.00
2023-01-27T05:16:24.154Z,14.27
2023-01-27T05:19:11.349Z,14.95
2023-01-27T05:21:58.239Z,17.15
2023-01-27T05:24:45.023Z,15.45
2023-01-27T05:27:32.047Z,17.38
2023-01-27T05:30:19.016Z,16.67
2023-01-27T05:33:06.222Z,15.98
2023-01-27T05:35:53.026Z,16.48
2023-01-27T05:38:40.522Z,16.17
2023-01-27T05:41:31.146Z,15.90
2023-01-27T05:44:18.007Z,17.60
2023-01-27T05:47:06.052Z,15.73
2023-01-27T05:49:52.968Z,15.70
2023-01-27T05:52:39.832Z,19.70
2023-01-27T05:55:26.678Z,18.93
2023-01-27T05:58:13.488Z,20.13
2023-01-27T06:01:30.849Z,19.87
2023-01-27T06:04:17.705Z,21.92
2023-01-27T06:07:04.866Z,21.23
2023-01-27T06:09:51.666Z,20.88
2023-01-27T06:12:38.503Z,18.50
2023-01-27T06:15:25.331Z,17.55
2023-01-27T06:18:13.284Z,17.00
2023-01-27T06:21:01.969Z,15.23
2023-01-27T06:23:49.459Z,16.08
2023-01-27T06:26:36.638Z,18.13
2023-01-27T06:29:23.433Z,18.38
2023-01-27T06:32:10.312Z,17.67
2023-01-27T06:34:57.179Z,18.05
2023-01-27T06:37:44.043Z,16.83
2023-01-27T06:40:32.237Z,20.07
2023-01-27T06:43:19.094Z,18.38
2023-01-27T06:46:06.646Z,18.88
2023-01-27T06:48:53.436Z,17.80
2023-01-27T06:51:40.292Z,19.03
2023-01-27T06:54:27.059Z,20.10
2023-01-27T06:57:13.868Z,19.30
2023-01-27T07:00:00.718Z,17.97
2023-01-27T07:02:48.082Z,18.10
2023-01-27T07:05:35.032Z,18.83
2023-01-27T07:08:21.895Z,17.13
2023-01-27T07:11:08.831Z,16.93
2023-01-27T07:13:55.753Z,16.05
2023-01-27T07:16:42.652Z,16.13
2023-01-27T07:19:29.477Z,17.02
2023-01-27T07:22:16.284Z,18.13
2023-01-27T07:25:04.395Z,17.10
2023-01-27T07:27:51.320Z,17.15
2023-01-27T07:30:39.429Z,17.35
2023-01-27T07:33:26.302Z,14.75
2023-01-27T07:36:13.432Z,16.57
2023-01-27T07:39:00.282Z,16.15
2023-01-27T07:41:49.609Z,17.85
2023-01-27T07:44:36.469Z,16.50
2023-01-27T07:47:24.566Z,17.60
2023-01-27T07:50:12.833Z,17.65
2023-01-27T07:53:01.349Z,16.60
2023-01-27T07:55:48.170Z,15.07
2023-01-27T07:58:34.994Z,18.00
2023-01-27T08:01:22.196Z,15.17
2023-01-27T08:04:09.366Z,15.55
2023-01-27T08:06:56.147Z,16.60
2023-01-27T08:09:43.409Z,21.40
2023-01-27T08:12:30.344Z,19.73
2023-01-27T08:15:19.168Z,21.42
2023-01-27T08:18:06.138Z,19.58
2023-01-27T08:20:59.481Z,21.50
2023-01-27T08:23:46.443Z,23.33
2023-01-27T08:26:33.376Z,20.35
2023-01-27T08:29:20.214Z,18.92
2023-01-27T08:32:07.349Z,22.37
2023-01-27T08:34:55.527Z,20.27
2023-01-27T08:37:42.388Z,18.13
2023-01-27T08:40:29.392Z,20.27
2023-01-27T08:43:16.782Z,20.13
2023-01-27T08:46:04.113Z,22.38
2023-01-27T08:48:51.812Z,22.80
2023-01-27T08:51:38.761Z,19.23
2023-01-27T08:54:25.604Z,21.02
2023-01-27T08:57:12.401Z,19.58
2023-01-27T08:59:59.455Z,21.37
2023-01-27T09:02:46.695Z,18.85
2023-01-27T09:05:36.414Z,18.42
2023-01-27T09:08:23.590Z,17.70
2023-01-27T09:11:16.354Z,17.80
2023-01-27T09:14:03.916Z,17.98
2023-01-27T09:16:50.803Z,19.33
2023-01-27T09:19:37.644Z,18.77
2023-01-27T09:22:24.542Z,19.13
2023-01-27T09:25:16.395Z,17.20
2023-01-27T09:28:03.444Z,18.88
2023-01-27T09:30:50.263Z,18.08
2023-01-27T09:33:38.790Z,17.40
2023-01-27T09:36:26.609Z,14.55
2023-01-27T09:39:17.033Z,15.57
2023-01-27T09:42:19.695Z,15.23
2023-01-27T09:45:12.487Z,14.95
2023-01-27T09:48:25.119Z,15.85
2023-01-27T09:51:35.135Z,16.17
2023-01-27T09:54:40.135Z,14.27
2023-01-27T09:57:51.576Z,16.10
2023-01-27T10:01:02.335Z,15.27
2023-01-27T10:04:10.777Z,15.85
2023-01-27T10:07:24.467Z,15.13
2023-01-27T10:10:29.054Z,16.00
2023-01-27T10:13:31.522Z,18.17
2023-01-27T10:16:41.938Z,19.85
2023-01-27T10:19:40.623Z,18.65
2023-01-27T10:23:01.580Z,18.85
2023-01-27T10:26:22.442Z,19.17
2023-01-27T10:29:19.108Z,20.45
2023-01-27T10:32:20.324Z,20.75
2023-01-27T10:35:22.109Z,20.50
2023-01-27T10:38:41.238Z,20.30
2023-01-27T10:41:30.943Z,21.13
2023-01-27T10:44:45.833Z,19.88
2023-01-27T10:48:01.833Z,19.65
2023-01-27T10:51:08.584Z,22.25
2023-01-27T10:54:04.899Z,22.13
2023-01-27T10:57:06.594Z,21.98
2023-01-27T11:00:41.563Z,24.13
2023-01-27T11:03:48.711Z,23.60
2023-01-27T11:06:39.438Z,23.25
2023-01-27T11:09:31.449Z,22.95
2023-01-27T11:12:25.542Z,23.92
2023-01-27T11:15:33.145Z,24.25
2023-01-27T11:18:25.555Z,21.13
2023-01-27T11:21:25.610Z,22.77
2023-01-27T11:24:22.599Z,21.58
2023-01-27T11:27:46.683Z,22.50
2023-01-27T11:30:54.299Z,21.17
2023-01-27T11:34:03.784Z,19.98
2023-01-27T11:36:51.179Z,18.35
2023-01-27T11:39:37.981Z,17.13
2023-01-27T11:42:32.394Z,19.00
2023-01-27T11:45:21.354Z,19.77
2023-01-27T11:48:14.063Z,19.70
2023-01-27T11:51:02.358Z,18.10
2023-01-27T11:54:22.006Z,16.35
2023-01-27T11:57:20.744Z,19.17
2023-01-27T12:00:16.322Z,17.90
2023-01-27T12:03:11.708Z,15.25
2023-01-27T12:06:04.538Z,15.68
2023-01-27T12:08:51.353Z,15.98
2023-01-27T12:11:38.157Z,17.43
2023-01-27T12:14:24.909Z,18.03
2023-01-27T12:17:22.247Z,16.80
2023-01-27T12:20:38.670Z,17.60
2023-01-27T12:23:36.436Z,17.92
2023-01-27T12:26:36.557Z,18.98
2023-01-27T12:29:34.288Z,20.90
2023-01-27T12:32:24.715Z,20.60
2023-01-27T12:35:32.845Z,17.50
2023-01-27T12:38:26.515Z,12.57
2023-01-27T12:41:22.770Z,17.83
2023-01-27T12:44:17.268Z,17.10
2023-01-27T12:47:21.958Z,17.42
2023-01-27T12:50:24.130Z,17.65
2023-01-27T12:53:29.233Z,16.63
2023-01-27T12:56:20.912Z,18.55
2023-01-27T12:59:16.640Z,18.70
2023-01-27T13:02:30.778Z,18.67
2023-01-27T13:05:18.229Z,18.52
2023-01-27T13:08:05.968Z,21.38
2023-01-27T13:13:53.544Z,18.25
2023-01-27T13:16:40.555Z,16.90
2023-01-27T13:19:43.807Z,18.20
2023-01-27T13:22:40.252Z,17.50
2023-01-27T13:25:45.530Z,16.85
2023-01-27T13:28:55.224Z,18.55
2023-01-27T13:32:01.638Z,18.42
2023-01-27T13:35:15.545Z,19.10
2023-01-27T13:38:12.369Z,17.65
2023-01-27T13:41:00.019Z,20.08
2023-01-27T13:46:40.783Z,19.27
2023-01-27T13:49:42.755Z,18.52
2023-01-27T13:52:29.647Z,19.13
2023-01-27T13:55:17.777Z,21.38
2023-01-27T13:58:17.107Z,20.90
2023-01-27T14:01:42.194Z,23.52
2023-01-27T14:05:03.397Z,22.05
2023-01-27T14:08:10.180Z,23.05
2023-01-27T14:11:06.117Z,22.98
2023-01-27T14:13:55.000Z,27.70
2023-01-27T14:17:26.649Z,28.90
2023-01-27T14:20:47.332Z,26.98
2023-01-27T14:23:56.437Z,25.48
2023-01-27T14:27:05.408Z,24.73
2023-01-27T14:30:03.549Z,26.02
2023-01-27T14:33:19.574Z,25.73
2023-01-27T14:36:30.384Z,27.55
2023-01-27T14:39:21.028Z,27.75
2023-01-27T14:45:36.019Z,27.25
2023-01-27T14:49:03.170Z,29.63
2023-01-27T14:52:12.605Z,28.65
2023-01-27T14:55:17.541Z,27.27
2023-01-27T14:58:36.712Z,25.20
2023-01-27T15:01:35.282Z,30.38
2023-01-27T15:04:52.338Z,32.65
2023-01-27T15:08:04.792Z,30.88
2023-01-27T15:10:59.930Z,29.92
2023-01-27T15:14:10.979Z,26.23
2023-01-27T15:17:09.695Z,32.47
2023-01-27T15:20:07.334Z,28.33
2023-01-27T15:23:40.568Z,29.13
2023-01-27T15:26:29.172Z,30.35
2023-01-27T15:29:18.035Z,29.15
2023-01-27T15:32:17.021Z,29.13
2023-01-27T15:35:22.637Z,28.52
2023-01-27T15:38:18.687Z,29.75
2023-01-27T15:41:10.956Z,32.60
2023-01-27T15:44:19.460Z,28.40
2023-01-27T15:47:23.549Z,27.35
2023-01-27T15:50:20.271Z,30.90
2023-01-27T15:53:16.303Z,27.90
2023-01-27T15:56:04.647Z,28.50
2023-01-27T15:58:56.946Z,30.10
2023-01-27T16:01:43.786Z,28.33
2023-01-27T16:04:33.118Z,29.33
2023-01-27T16:07:31.123Z,29.60
2023-01-27T16:10:21.988Z,27.95
2023-01-27T16:13:15.125Z,30.15
2023-01-27T16:16:19.991Z,28.63
2023-01-27T16:19:11.007Z,31.75
2023-01-27T16:22:07.181Z,29.67
2023-01-27T16:24:59.667Z,30.45
2023-01-27T16:28:14.406Z,33.08
2023-01-27T16:31:01.575Z,31.58
2023-01-27T16:33:55.261Z,31.90
2023-01-27T16:36:42.269Z,32.65
2023-01-27T16:39:44.180Z,29.80
2023-01-27T16:42:54.735Z,33.45
2023-01-27T16:45:48.955Z,32.35
2023-01-27T16:48:46.322Z,33.20
2023-01-27T16:51:35.140Z,35.37
2023-01-27T16:54:44.607Z,32.10
2023-01-27T16:57:42.116Z,34.45
2023-01-27T17:00:33.393Z,33.90
2023-01-27T17:03:30.140Z,31.25
2023-01-27T17:06:17.999Z,31.63
2023-01-27T17:09:31.926Z,35.22
2023-01-27T17:12:47.044Z,37.25
2023-01-27T17:15:38.516Z,30.45
2023-01-27T17:18:26.059Z,33.20
2023-01-27T17:21:12.922Z,35.15
2023-01-27T17:24:04.656Z,39.73
2023-01-27T17:27:02.916Z,33.97
2023-01-27T17:32:41.517Z,31.00
2023-01-27T17:35:35.558Z,34.15
2023-01-27T17:38:34.854Z,29.50
2023-01-27T17:41:26.205Z,31.20
2023-01-27T17:44:15.020Z,29.15
2023-01-27T17:47:02.379Z,33.00
2023-01-27T17:49:50.651Z,31.75
2023-01-27T17:52:38.470Z,30.40
2023-01-27T17:55:30.017Z,35.17
2023-01-27T17:58:24.537Z,35.38
2023-01-27T18:01:12.598Z,31.27
2023-01-27T18:03:59.895Z,37.28
2023-01-27T18:06:46.712Z,37.95
2023-01-27T18:09:33.552Z,34.10
2023-01-27T18:12:35.519Z,33.63
2023-01-27T18:15:37.677Z,32.08
2023-01-27T18:18:33.599Z,35.88
2023-01-27T18:21:25.663Z,31.27
2023-01-27T18:24:21.878Z,35.95
2023-01-27T18:27:32.513Z,31.90
2023-01-27T18:30:21.499Z,33.25
2023-01-27T18:33:11.496Z,32.42
2023-01-27T18:36:00.233Z,35.17
2023-01-27T18:38:49.912Z,38.47
2023-01-27T18:41:47.332Z,37.80
2023-01-27T18:44:37.339Z,36.47
2023-01-27T18:47:27.347Z,40.88
2023-01-27T18:50:18.139Z,37.40
2023-01-27T18:53:16.628Z,36.72
2023-01-27T18:56:04.586Z,39.33
2023-01-27T18:58:54.128Z,36.67
2023-01-27T19:01:41.079Z,39.38
2023-01-27T19:04:28.196Z,28.90
2023-01-27T19:07:17.754Z,39.03
2023-01-27T19:10:11.777Z,38.90
2023-01-27T19:13:00.635Z,37.97
2023-01-27T19:15:51.128Z,40.15
2023-01-27T19:18:39.509Z,42.15
2023-01-27T19:21:26.550Z,35.95
2023-01-27T19:24:13.577Z,37.20
2023-01-27T19:27:01.804Z,41.00
2023-01-27T19:29:50.364Z,41.30
2023-01-27T19:32:37.248Z,40.78
2023-01-27T19:35:26.382Z,40.92
2023-01-27T19:38:13.655Z,39.35
2023-01-27T19:41:00.534Z,39.95
2023-01-27T19:43:50.060Z,39.13
2023-01-27T19:46:38.905Z,35.97
2023-01-27T19:49:25.811Z,36.80
2023-01-27T19:52:12.648Z,38.53
2023-01-27T19:54:59.612Z,36.67
2023-01-27T19:57:47.127Z,40.00
2023-01-27T20:00:37.007Z,35.70
2023-01-27T20:03:24.750Z,35.72
2023-01-27T20:09:03.675Z,37.63
2023-01-27T20:11:50.485Z,39.60
2023-01-27T20:14:37.459Z,37.87
2023-01-27T20:17:24.294Z,40.15
2023-01-27T20:20:11.434Z,24.83
2023-01-27T20:22:58.280Z,35.85
2023-01-27T20:25:45.518Z,34.43
2023-01-27T20:28:32.325Z,34.88
2023-01-27T20:31:24.775Z,37.10
2023-01-27T20:34:11.696Z,37.42
2023-01-27T20:36:58.572Z,37.47
2023-01-27T20:39:45.395Z,36.95
2023-01-27T20:42:32.528Z,39.33
2023-01-27T20:45:19.958Z,35.60
2023-01-27T20:48:07.037Z,38.45
2023-01-27T20:51:12.768Z,37.42
2023-01-27T20:54:00.834Z,39.40
2023-01-27T20:56:47.675Z,38.40
2023-01-27T20:59:34.629Z,40.38
2023-01-27T21:02:21.631Z,43.80
2023-01-27T21:05:09.016Z,40.25
2023-01-27T21:07:55.878Z,39.90
2023-01-27T21:10:42.787Z,40.80
2023-01-27T21:13:30.014Z,40.65
2023-01-27T21:16:17.166Z,38.00
2023-01-27T21:19:04.148Z,37.75
2023-01-27T21:21:50.979Z,36.65
2023-01-27T21:24:37.830Z,37.03
2023-01-27T21:27:24.725Z,39.15
2023-01-27T21:30:12.702Z,36.47
2023-01-27T21:32:59.700Z,31.23
2023-01-27T21:35:54.423Z,34.92
2023-01-27T21:38:41.239Z,28.70
2023-01-27T21:41:46.696Z,31.63
2023-01-27T21:44:51.982Z,32.83
2023-01-27T21:47:39.145Z,28.98
2023-01-27T21:50:26.104Z,27.75
2023-01-27T21:53:12.886Z,29.75
2023-01-27T21:56:07.798Z,31.65
2023-01-27T21:58:54.560Z,27.48
2023-01-27T22:01:41.429Z,29.77
2023-01-27T22:04:28.217Z,27.67
2023-01-27T22:07:17.142Z,27.13
2023-01-27T22:10:17.943Z,28.25
2023-01-27T22:13:04.873Z,28.10
2023-01-27T22:15:51.723Z,26.45
2023-01-27T22:18:38.524Z,30.55
2023-01-27T22:21:25.360Z,29.93
2023-01-27T22:24:12.462Z,26.57
2023-01-27T22:26:59.338Z,29.55
2023-01-27T22:29:46.154Z,27.87
2023-01-27T22:32:32.988Z,27.97
2023-01-27T22:35:19.889Z,27.47
2023-01-27T22:38:07.156Z,26.83
2023-01-27T22:40:58.641Z,24.23
2023-01-27T22:43:49.020Z,27.13
2023-01-27T22:46:35.929Z,29.58
2023-01-27T22:49:22.702Z,28.33
2023-01-27T22:52:09.558Z,26.00
2023-01-27T22:54:56.488Z,29.75
2023-01-27T22:57:45.328Z,27.38
2023-01-27T23:00:32.085Z,28.67
2023-01-27T23:03:19.377Z,31.23
2023-01-27T23:06:07.536Z,30.85
2023-01-27T23:08:54.372Z,29.55
2023-01-27T23:11:41.268Z,32.60
2023-01-27T23:14:28.062Z,35.10
2023-01-27T23:17:15.235Z,28.57
2023-01-27T23:20:02.444Z,29.33
2023-01-27T23:22:49.479Z,32.13
2023-01-27T23:25:41.042Z,34.92
2023-01-27T23:28:27.995Z,28.10
2023-01-27T23:31:15.330Z,32.90
2023-01-27T23:34:02.144Z,28.80
2023-01-27T23:36:49.149Z,28.87
2023-01-27T23:39:35.995Z,30.80
2023-01-27T23:42:23.011Z,29.70
2023-01-27T23:45:10.136Z,33.55
2023-01-27T23:47:56.982Z,29.95
2023-01-27T23:50:43.880Z,34.77
2023-01-27T23:53:30.703Z,34.25
2023-01-27T23:56:20.202Z,32.40
2023-01-27T23:59:07.096Z,31.05
